createdAt,value
2019-03-03T00:02:30.369Z,100064.00
2019-03-03T00:05:03.904Z,100075.00
2019-03-03T00:07:36.730Z,100075.00
2019-03-03T00:10:10.402Z,100066.00
2019-03-03T00:12:43.335Z,100069.00
2019-03-03T00:15:16.166Z,100076.00
2019-03-03T00:17:49.052Z,100074.00
2019-03-03T00:20:21.992Z,100075.00
2019-03-03T00:22:54.926Z,100065.00
2019-03-03T00:25:27.722Z,100066.00
2019-03-03T00:28:01.673Z,100073.00
2019-03-03T00:30:34.495Z,100081.00
2019-03-03T00:33:07.343Z,100079.00
2019-03-03T00:35:40.167Z,100078.00
2019-03-03T00:38:32.714Z,100076.00
2019-03-03T00:41:23.781Z,100074.00
2019-03-03T00:44:09.498Z,100069.00
2019-03-03T00:47:04.709Z,100068.00
2019-03-03T00:49:57.134Z,100075.00
2019-03-03T00:52:49.895Z,100076.00
2019-03-03T00:55:57.464Z,100074.00
2019-03-03T00:58:44.335Z,100062.00
2019-03-03T01:01:38.010Z,100054.00
2019-03-03T01:04:22.561Z,100045.00
2019-03-03T01:07:17.432Z,100049.00
2019-03-03T01:09:58.332Z,100059.00
2019-03-03T01:12:39.396Z,100053.00
2019-03-03T01:15:29.796Z,100043.00
2019-03-03T01:18:11.682Z,100047.00
2019-03-03T01:21:13.119Z,100035.00
2019-03-03T01:24:13.903Z,100035.00
2019-03-03T01:26:46.750Z,100025.00
2019-03-03T01:29:19.632Z,100025.00
2019-03-03T01:31:52.567Z,100029.00
2019-03-03T01:34:25.436Z,100031.00
2019-03-03T01:36:58.232Z,100030.00
2019-03-03T01:39:31.058Z,100016.00
2019-03-03T01:42:04.263Z,100020.00
2019-03-03T01:44:37.229Z,100019.00
2019-03-03T01:47:10.082Z,100015.00
2019-03-03T01:49:42.941Z,100018.00
2019-03-03T01:52:15.721Z,100014.00
2019-03-03T01:54:48.538Z,100016.00
2019-03-03T01:57:21.353Z,100019.00
2019-03-03T01:59:54.171Z,100008.00
2019-03-03T02:02:26.976Z,99994.00
2019-03-03T02:04:59.815Z,99995.00
2019-03-03T02:07:32.633Z,99995.00
2019-03-03T02:10:06.111Z,99987.00
2019-03-03T02:12:39.035Z,99992.00
2019-03-03T02:15:12.960Z,99995.00
2019-03-03T02:17:45.945Z,99986.00
2019-03-03T02:20:18.788Z,99986.00
2019-03-03T02:22:51.578Z,99987.00
2019-03-03T02:25:24.578Z,99982.00
2019-03-03T02:27:57.369Z,99982.00
2019-03-03T02:30:30.206Z,99976.00
2019-03-03T02:33:03.021Z,99976.00
2019-03-03T02:35:35.834Z,99976.00
2019-03-03T02:38:08.665Z,99971.00
2019-03-03T02:40:41.480Z,99969.00
2019-03-03T02:43:14.405Z,99968.00
2019-03-03T02:45:47.232Z,99984.00
2019-03-03T02:48:20.050Z,99984.00
2019-03-03T02:50:52.854Z,99988.00
2019-03-03T02:53:25.670Z,99981.00
2019-03-03T02:55:58.474Z,99972.00
2019-03-03T02:58:31.489Z,99959.00
2019-03-03T03:01:13.411Z,99961.00
2019-03-03T03:03:46.208Z,99950.00
2019-03-03T03:06:53.792Z,99944.00
2019-03-03T03:09:44.682Z,99947.00
2019-03-03T03:12:25.272Z,99939.00
2019-03-03T03:15:15.988Z,99945.00
2019-03-03T03:17:56.716Z,99941.00
2019-03-03T03:20:44.769Z,99938.00
2019-03-03T03:23:25.858Z,99936.00
2019-03-03T03:26:18.279Z,99942.00
2019-03-03T03:29:19.463Z,99945.00
2019-03-03T03:32:08.902Z,99943.00
2019-03-03T03:34:47.365Z,99932.00
2019-03-03T03:37:42.309Z,99931.00
2019-03-03T03:40:38.609Z,99937.00
2019-03-03T03:43:36.755Z,99926.00
2019-03-03T03:46:42.099Z,99920.00
2019-03-03T03:49:33.256Z,99913.00
2019-03-03T03:52:37.784Z,99926.00
2019-03-03T03:55:33.196Z,99926.00
2019-03-03T03:58:24.297Z,99926.00
2019-03-03T04:01:14.576Z,99912.00
2019-03-03T04:04:05.818Z,99921.00
2019-03-03T04:07:04.180Z,99936.00
2019-03-03T04:09:41.553Z,99931.00
2019-03-03T04:12:32.658Z,99935.00
2019-03-03T04:15:20.449Z,99920.00
2019-03-03T04:18:21.528Z,99914.00
2019-03-03T04:21:19.988Z,99909.00
2019-03-03T04:24:18.028Z,99913.00
2019-03-03T04:27:05.804Z,99911.00
2019-03-03T04:29:51.745Z,99921.00
2019-03-03T04:32:46.744Z,99899.00
2019-03-03T04:35:41.012Z,99891.00
2019-03-03T04:38:42.531Z,99903.00
2019-03-03T04:41:46.943Z,99894.00
2019-03-03T04:44:42.420Z,99891.00
2019-03-03T04:47:53.212Z,99890.00
2019-03-03T04:50:40.759Z,99882.00
2019-03-03T04:53:29.990Z,99879.00
2019-03-03T04:56:21.630Z,99873.00
2019-03-03T04:59:14.171Z,99864.00
2019-03-03T05:02:05.861Z,99861.00
2019-03-03T05:04:49.639Z,99873.00
2019-03-03T05:07:47.928Z,99865.00
2019-03-03T05:10:36.043Z,99862.00
2019-03-03T05:13:20.634Z,99853.00
2019-03-03T05:16:10.158Z,99850.00
2019-03-03T05:18:53.134Z,99844.00
2019-03-03T05:21:25.943Z,99846.00
2019-03-03T05:23:59.901Z,99837.00
2019-03-03T05:26:32.713Z,99847.00
2019-03-03T05:29:05.545Z,99834.00
2019-03-03T05:31:38.329Z,99837.00
2019-03-03T05:34:11.168Z,99827.00
2019-03-03T05:36:43.951Z,99827.00
2019-03-03T05:39:16.940Z,99836.00
2019-03-03T05:41:49.804Z,99828.00
2019-03-03T05:44:22.664Z,99826.00
2019-03-03T05:46:55.475Z,99824.00
2019-03-03T05:49:29.479Z,99825.00
2019-03-03T05:52:02.320Z,99832.00
2019-03-03T05:54:35.170Z,99826.00
2019-03-03T05:57:07.970Z,99827.00
2019-03-03T05:59:40.783Z,99811.00
2019-03-03T06:02:13.646Z,99802.00
2019-03-03T06:04:46.558Z,99802.00
2019-03-03T06:07:19.363Z,99803.00
2019-03-03T06:09:52.188Z,99797.00
2019-03-03T06:12:25.006Z,99788.00
2019-03-03T06:14:57.847Z,99787.00
2019-03-03T06:17:30.659Z,99795.00
2019-03-03T06:20:04.623Z,99789.00
2019-03-03T06:22:37.452Z,99788.00
2019-03-03T06:25:10.834Z,99799.00
2019-03-03T06:27:43.632Z,99793.00
2019-03-03T06:30:17.571Z,99798.00
2019-03-03T06:32:50.379Z,99802.00
2019-03-03T06:35:23.311Z,99796.00
2019-03-03T06:37:56.132Z,99812.00
2019-03-03T06:40:30.088Z,99823.00
2019-03-03T06:43:02.891Z,99819.00
2019-03-03T06:45:35.695Z,99834.00
2019-03-03T06:48:08.523Z,99812.00
2019-03-03T06:50:42.551Z,99828.00
2019-03-03T06:53:15.372Z,99827.00
2019-03-03T06:55:48.335Z,99828.00
2019-03-03T06:58:21.139Z,99826.00
2019-03-03T07:00:54.038Z,99828.00
2019-03-03T07:03:26.866Z,99830.00
2019-03-03T07:05:59.716Z,99829.00
2019-03-03T07:08:32.641Z,99830.00
2019-03-03T07:11:05.489Z,99832.00
2019-03-03T07:13:38.306Z,99839.00
2019-03-03T07:16:11.143Z,99843.00
2019-03-03T07:18:43.973Z,99847.00
2019-03-03T07:21:16.805Z,99847.00
2019-03-03T07:23:49.667Z,99845.00
2019-03-03T07:26:22.531Z,99836.00
2019-03-03T07:28:55.511Z,99844.00
2019-03-03T07:31:28.437Z,99847.00
2019-03-03T07:34:02.441Z,99845.00
2019-03-03T07:36:35.963Z,99846.00
2019-03-03T07:39:17.544Z,99845.00
2019-03-03T07:41:50.406Z,99845.00
2019-03-03T07:44:23.222Z,99855.00
2019-03-03T07:46:57.166Z,99850.00
2019-03-03T07:49:30.026Z,99851.00
2019-03-03T07:52:02.848Z,99850.00
2019-03-03T07:54:35.699Z,99855.00
2019-03-03T07:57:08.552Z,99858.00
2019-03-03T07:59:41.431Z,99855.00
2019-03-03T08:02:14.287Z,99858.00
2019-03-03T08:04:47.155Z,99846.00
2019-03-03T08:07:19.961Z,99850.00
2019-03-03T08:09:52.929Z,99851.00
2019-03-03T08:12:25.806Z,99851.00
2019-03-03T08:14:59.655Z,99859.00
2019-03-03T08:17:32.491Z,99868.00
2019-03-03T08:20:06.693Z,99865.00
2019-03-03T08:22:39.508Z,99859.00
2019-03-03T08:25:12.706Z,99858.00
2019-03-03T08:27:45.554Z,99848.00
2019-03-03T08:30:18.437Z,99859.00
2019-03-03T08:32:51.275Z,99847.00
2019-03-03T08:35:24.629Z,99846.00
2019-03-03T08:37:57.529Z,99855.00
2019-03-03T08:40:31.526Z,99836.00
2019-03-03T08:43:35.976Z,99853.00
2019-03-03T08:46:15.536Z,99853.00
2019-03-03T08:48:53.036Z,99848.00
2019-03-03T08:51:34.736Z,99863.00
2019-03-03T08:54:29.798Z,99853.00
2019-03-03T08:57:34.456Z,99859.00
2019-03-03T09:00:37.333Z,99844.00
2019-03-03T09:03:26.141Z,99852.00
2019-03-03T09:06:21.375Z,99840.00
2019-03-03T09:09:19.865Z,99848.00
2019-03-03T09:11:59.582Z,99846.00
2019-03-03T09:14:44.114Z,99839.00
2019-03-03T09:17:32.596Z,99851.00
2019-03-03T09:20:30.009Z,99844.00
2019-03-03T09:23:21.088Z,99845.00
2019-03-03T09:26:28.782Z,99842.00
2019-03-03T09:29:27.272Z,99845.00
2019-03-03T09:32:12.307Z,99837.00
2019-03-03T09:34:53.879Z,99857.00
2019-03-03T09:37:52.135Z,99847.00
2019-03-03T09:40:53.466Z,99844.00
2019-03-03T09:43:40.584Z,99846.00
2019-03-03T09:46:37.223Z,99851.00
2019-03-03T09:49:28.360Z,99846.00
2019-03-03T09:52:29.813Z,99836.00
2019-03-03T09:55:15.118Z,99833.00
2019-03-03T09:58:07.593Z,99838.00
2019-03-03T10:00:58.622Z,99831.00
2019-03-03T10:03:59.883Z,99840.00
2019-03-03T10:06:47.585Z,99841.00
2019-03-03T10:09:40.253Z,99831.00
2019-03-03T10:12:28.991Z,99831.00
2019-03-03T10:15:26.318Z,99837.00
2019-03-03T10:18:09.235Z,99830.00
2019-03-03T10:21:17.127Z,99826.00
2019-03-03T10:24:18.496Z,99818.00
2019-03-03T10:27:20.219Z,99819.00
2019-03-03T10:30:10.002Z,99825.00
2019-03-03T10:33:01.370Z,99836.00
2019-03-03T10:36:00.240Z,99828.00
2019-03-03T10:39:01.622Z,99834.00
2019-03-03T10:42:05.629Z,99835.00
2019-03-03T10:45:04.176Z,99844.00
2019-03-03T10:47:56.848Z,99843.00
2019-03-03T10:50:58.098Z,99845.00
2019-03-03T10:53:39.692Z,99846.00
2019-03-03T10:56:44.705Z,99849.00
2019-03-03T10:59:36.061Z,99836.00
2019-03-03T11:02:23.550Z,99823.00
2019-03-03T11:05:05.568Z,99834.00
2019-03-03T11:08:04.627Z,99833.00
2019-03-03T11:11:03.069Z,99810.00
2019-03-03T11:13:45.084Z,99826.00
2019-03-03T11:16:52.942Z,99834.00
2019-03-03T11:19:44.077Z,99820.00
2019-03-03T11:22:36.570Z,99819.00
2019-03-03T11:25:18.953Z,99823.00
2019-03-03T11:27:59.346Z,99806.00
2019-03-03T11:30:51.459Z,99805.00
2019-03-03T11:33:42.918Z,99806.00
2019-03-03T11:36:34.072Z,99795.00
2019-03-03T11:39:20.482Z,99792.00
2019-03-03T11:42:13.126Z,99787.00
2019-03-03T11:45:05.578Z,99780.00
2019-03-03T11:48:08.334Z,99786.00
2019-03-03T11:50:54.667Z,99779.00
2019-03-03T11:53:39.674Z,99781.00
2019-03-03T11:56:32.420Z,99770.00
2019-03-03T11:59:24.926Z,99774.00
2019-03-03T12:02:12.110Z,99772.00
2019-03-03T12:05:13.590Z,99757.00
2019-03-03T12:07:56.365Z,99760.00
2019-03-03T12:10:38.093Z,99755.00
2019-03-03T12:13:22.365Z,99765.00
2019-03-03T12:16:05.451Z,99769.00
2019-03-03T12:18:53.519Z,99756.00
2019-03-03T12:21:51.807Z,99760.00
2019-03-03T12:24:50.253Z,99750.00
2019-03-03T12:27:34.211Z,99752.00
2019-03-03T12:30:36.943Z,99740.00
2019-03-03T12:33:21.460Z,99742.00
2019-03-03T12:36:09.076Z,99736.00
2019-03-03T12:39:10.638Z,99731.00
2019-03-03T12:42:16.322Z,99730.00
2019-03-03T12:45:02.711Z,99724.00
2019-03-03T12:47:52.673Z,99734.00
2019-03-03T12:50:45.250Z,99711.00
2019-03-03T12:53:45.033Z,99718.00
2019-03-03T12:56:34.028Z,99709.00
2019-03-03T12:59:29.776Z,99709.00
2019-03-03T13:02:41.011Z,99701.00
2019-03-03T13:05:41.872Z,99699.00
2019-03-03T13:08:34.342Z,99692.00
2019-03-03T13:11:16.905Z,99687.00
2019-03-03T13:14:07.839Z,99684.00
2019-03-03T13:17:00.321Z,99677.00
2019-03-03T13:19:55.637Z,99665.00
2019-03-03T13:22:54.339Z,99652.00
2019-03-03T13:26:04.756Z,99656.00
2019-03-03T13:29:15.220Z,99653.00
2019-03-03T13:32:13.450Z,99660.00
2019-03-03T13:35:11.977Z,99655.00
2019-03-03T13:37:52.007Z,99651.00
2019-03-03T13:40:43.111Z,99655.00
2019-03-03T13:43:15.989Z,99656.00
2019-03-03T13:45:48.897Z,99653.00
2019-03-03T13:48:21.752Z,99649.00
2019-03-03T13:50:54.820Z,99637.00
2019-03-03T13:53:27.727Z,99636.00
2019-03-03T13:56:00.892Z,99639.00
2019-03-03T13:58:33.774Z,99636.00
2019-03-03T14:01:06.633Z,99636.00
2019-03-03T14:03:39.472Z,99640.00
2019-03-03T14:06:12.331Z,99629.00
2019-03-03T14:08:45.227Z,99616.00
2019-03-03T14:11:25.743Z,99619.00
2019-03-03T14:13:58.582Z,99618.00
2019-03-03T14:16:31.402Z,99626.00
2019-03-03T14:19:04.234Z,99625.00
2019-03-03T14:21:37.243Z,99609.00
2019-03-03T14:24:10.261Z,99598.00
2019-03-03T14:26:43.094Z,99587.00
2019-03-03T14:29:15.937Z,99588.00
2019-03-03T14:31:48.844Z,99584.00
2019-03-03T14:34:21.668Z,99587.00
2019-03-03T14:36:54.527Z,99588.00
2019-03-03T14:39:27.480Z,99580.00
2019-03-03T14:42:00.339Z,99572.00
2019-03-03T14:44:33.183Z,99565.00
2019-03-03T14:47:06.215Z,99569.00
2019-03-03T14:49:39.126Z,99578.00
2019-03-03T14:52:12.095Z,99560.00
2019-03-03T14:54:45.085Z,99557.00
2019-03-03T14:57:17.937Z,99564.00
2019-03-03T14:59:50.830Z,99555.00
2019-03-03T15:02:23.822Z,99555.00
2019-03-03T15:04:56.691Z,99567.00
2019-03-03T15:07:29.581Z,99567.00
2019-03-03T15:10:03.231Z,99560.00
2019-03-03T15:12:36.442Z,99564.00
2019-03-03T15:15:09.486Z,99557.00
2019-03-03T15:17:43.734Z,99552.00
2019-03-03T15:20:16.617Z,99551.00
2019-03-03T15:22:49.434Z,99552.00
2019-03-03T15:25:22.339Z,99546.00
2019-03-03T15:27:55.698Z,99554.00
2019-03-03T15:30:28.731Z,99548.00
2019-03-03T15:33:01.707Z,99544.00
2019-03-03T15:35:34.669Z,99547.00
2019-03-03T15:38:07.522Z,99539.00
2019-03-03T15:40:40.452Z,99531.00
2019-03-03T15:43:13.512Z,99529.00
2019-03-03T15:45:46.434Z,99535.00
2019-03-03T15:48:19.264Z,99526.00
2019-03-03T15:50:52.460Z,99523.00
2019-03-03T15:53:25.360Z,99517.00
2019-03-03T15:55:58.208Z,99515.00
2019-03-03T15:58:31.104Z,99515.00
2019-03-03T16:01:12.359Z,99513.00
2019-03-03T16:03:45.284Z,99508.00
2019-03-03T16:06:18.124Z,99506.00
2019-03-03T16:08:51.159Z,99506.00
2019-03-03T16:11:24.032Z,99490.00
2019-03-03T16:13:56.919Z,99483.00
2019-03-03T16:16:29.850Z,99478.00
2019-03-03T16:19:02.682Z,99470.00
2019-03-03T16:21:35.674Z,99452.00
2019-03-03T16:24:08.673Z,99443.00
2019-03-03T16:26:41.725Z,99428.00
2019-03-03T16:29:14.775Z,99437.00
2019-03-03T16:31:47.669Z,99431.00
2019-03-03T16:34:20.557Z,99429.00
2019-03-03T16:36:53.453Z,99417.00
2019-03-03T16:39:26.292Z,99422.00
2019-03-03T16:41:59.172Z,99424.00
2019-03-03T16:44:32.045Z,99418.00
2019-03-03T16:47:04.932Z,99416.00
2019-03-03T16:49:38.954Z,99422.00
2019-03-03T16:52:11.892Z,99419.00
2019-03-03T16:54:44.749Z,99414.00
2019-03-03T16:57:17.623Z,99409.00
2019-03-03T16:59:50.483Z,99406.00
2019-03-03T17:02:23.414Z,99407.00
2019-03-03T17:04:56.287Z,99407.00
2019-03-03T17:07:29.162Z,99401.00
2019-03-03T17:10:02.144Z,99399.00
2019-03-03T17:12:34.981Z,99392.00
2019-03-03T17:15:11.719Z,99407.00
2019-03-03T17:17:44.615Z,99398.00
2019-03-03T17:20:17.528Z,99396.00
2019-03-03T17:22:50.402Z,99392.00
2019-03-03T17:25:23.315Z,99388.00
2019-03-03T17:27:56.351Z,99395.00
2019-03-03T17:30:29.213Z,99401.00
2019-03-03T17:33:02.280Z,99379.00
2019-03-03T17:35:35.162Z,99390.00
2019-03-03T17:38:08.020Z,99387.00
2019-03-03T17:40:40.915Z,99376.00
2019-03-03T17:43:13.842Z,99375.00
2019-03-03T17:45:46.880Z,99383.00
2019-03-03T17:48:19.768Z,99372.00
2019-03-03T17:50:52.787Z,99370.00
2019-03-03T17:53:25.714Z,99361.00
2019-03-03T17:55:58.698Z,99364.00
2019-03-03T17:58:32.691Z,99355.00
2019-03-03T18:01:05.671Z,99362.00
2019-03-03T18:03:38.542Z,99363.00
2019-03-03T18:06:11.404Z,99360.00
2019-03-03T18:08:44.426Z,99357.00
2019-03-03T18:11:19.129Z,99340.00
2019-03-03T18:13:52.133Z,99338.00
2019-03-03T18:16:25.019Z,99331.00
2019-03-03T18:18:58.057Z,99338.00
2019-03-03T18:21:30.964Z,99326.00
2019-03-03T18:24:03.878Z,99322.00
2019-03-03T18:26:36.767Z,99328.00
2019-03-03T18:29:09.694Z,99325.00
2019-03-03T18:31:42.659Z,99317.00
2019-03-03T18:34:15.620Z,99300.00
2019-03-03T18:36:50.050Z,99316.00
2019-03-03T18:39:22.951Z,99297.00
2019-03-03T18:41:55.956Z,99291.00
2019-03-03T18:44:28.987Z,99298.00
2019-03-03T18:47:02.337Z,99297.00
2019-03-03T18:49:35.279Z,99293.00
2019-03-03T18:52:08.305Z,99282.00
2019-03-03T18:54:41.203Z,99289.00
2019-03-03T18:57:14.281Z,99297.00
2019-03-03T18:59:47.298Z,99289.00
2019-03-03T19:02:20.153Z,99277.00
2019-03-03T19:04:53.082Z,99281.00
2019-03-03T19:07:26.314Z,99284.00
2019-03-03T19:09:59.597Z,99286.00
2019-03-03T19:12:32.454Z,99291.00
2019-03-03T19:15:07.215Z,99279.00
2019-03-03T19:17:40.127Z,99279.00
2019-03-03T19:20:14.397Z,99276.00
2019-03-03T19:22:47.526Z,99278.00
2019-03-03T19:25:20.461Z,99261.00
2019-03-03T19:27:53.514Z,99269.00
2019-03-03T19:30:26.940Z,99264.00
2019-03-03T19:33:07.989Z,99259.00
2019-03-03T19:35:41.086Z,99254.00
2019-03-03T19:38:14.117Z,99243.00
2019-03-03T19:40:47.303Z,99253.00
2019-03-03T19:43:20.276Z,99240.00
2019-03-03T19:45:53.596Z,99240.00
2019-03-03T19:48:27.595Z,99243.00
2019-03-03T19:51:00.533Z,99238.00
2019-03-03T19:53:33.593Z,99236.00
2019-03-03T19:56:06.615Z,99237.00
2019-03-03T19:58:39.611Z,99238.00
2019-03-03T20:01:12.924Z,99239.00
2019-03-03T20:03:46.011Z,99241.00
2019-03-03T20:06:18.959Z,99236.00
2019-03-03T20:08:51.944Z,99228.00
2019-03-03T20:11:24.919Z,99235.00
2019-03-03T20:13:57.983Z,99238.00
2019-03-03T20:16:31.337Z,99227.00
2019-03-03T20:19:04.462Z,99228.00
2019-03-03T20:21:37.455Z,99234.00
2019-03-03T20:24:10.509Z,99225.00
2019-03-03T20:26:43.674Z,99213.00
2019-03-03T20:29:16.917Z,99216.00
2019-03-03T20:31:49.878Z,99199.00
2019-03-03T20:34:22.987Z,99205.00
2019-03-03T20:36:55.903Z,99197.00
2019-03-03T20:39:28.836Z,99188.00
2019-03-03T20:42:01.701Z,99195.00
2019-03-03T20:44:34.672Z,99181.00
2019-03-03T20:47:07.531Z,99178.00
2019-03-03T20:49:40.387Z,99180.00
2019-03-03T20:52:13.199Z,99182.00
2019-03-03T20:54:47.243Z,99173.00
2019-03-03T20:57:20.137Z,99174.00
2019-03-03T20:59:52.996Z,99170.00
2019-03-03T21:02:25.848Z,99168.00
2019-03-03T21:04:58.712Z,99159.00
2019-03-03T21:07:31.579Z,99149.00
2019-03-03T21:10:05.070Z,99144.00
2019-03-03T21:12:38.171Z,99135.00
2019-03-03T21:15:11.415Z,99137.00
2019-03-03T21:17:44.144Z,99132.00
2019-03-03T21:20:17.744Z,99126.00
2019-03-03T21:22:50.641Z,99126.00
2019-03-03T21:25:23.447Z,99109.00
2019-03-03T21:27:56.195Z,99116.00
2019-03-03T21:30:28.980Z,99114.00
2019-03-03T21:33:01.720Z,99113.00
2019-03-03T21:35:34.576Z,99109.00
2019-03-03T21:38:07.331Z,99097.00
2019-03-03T21:40:40.236Z,99095.00
2019-03-03T21:43:13.096Z,99083.00
2019-03-03T21:45:45.862Z,99093.00
2019-03-03T21:48:18.608Z,99087.00
2019-03-03T21:50:51.402Z,99076.00
2019-03-03T21:53:24.128Z,99067.00
2019-03-03T21:55:56.920Z,99071.00
2019-03-03T21:58:29.717Z,99072.00
2019-03-03T22:01:03.619Z,99052.00
2019-03-03T22:03:36.565Z,99038.00
2019-03-03T22:06:09.414Z,99050.00
2019-03-03T22:08:42.244Z,99048.00
2019-03-03T22:11:15.182Z,99050.00
2019-03-03T22:13:47.918Z,99053.00
2019-03-03T22:16:20.769Z,99049.00
2019-03-03T22:18:53.508Z,99060.00
2019-03-03T22:21:26.291Z,99042.00
2019-03-03T22:23:59.067Z,99035.00
2019-03-03T22:26:31.884Z,99030.00
2019-03-03T22:29:04.705Z,99021.00
2019-03-03T22:31:37.494Z,99013.00
2019-03-03T22:34:10.238Z,99008.00
2019-03-03T22:36:43.025Z,99001.00
2019-03-03T22:39:15.683Z,99011.00
2019-03-03T22:41:48.519Z,99017.00
2019-03-03T22:44:21.238Z,99012.00
2019-03-03T22:46:54.012Z,98995.00
2019-03-03T22:49:26.758Z,98986.00
2019-03-03T22:51:59.530Z,98974.00
2019-03-03T22:54:32.542Z,98972.00
2019-03-03T22:57:05.454Z,98966.00
2019-03-03T22:59:38.302Z,98962.00
2019-03-03T23:02:12.502Z,98946.00
2019-03-03T23:05:14.121Z,98943.00
2019-03-03T23:08:00.086Z,98939.00
2019-03-03T23:11:16.619Z,98949.00
2019-03-03T23:14:36.665Z,98956.00
2019-03-03T23:17:57.743Z,98955.00
2019-03-03T23:21:08.834Z,98955.00
2019-03-03T23:24:28.380Z,98935.00
2019-03-03T23:27:01.322Z,98931.00
2019-03-03T23:29:34.165Z,98937.00
2019-03-03T23:32:07.218Z,98940.00
2019-03-03T23:34:40.042Z,98927.00
2019-03-03T23:37:13.775Z,98933.00
2019-03-03T23:39:46.632Z,98929.00
2019-03-03T23:42:19.500Z,98919.00
2019-03-03T23:44:52.326Z,98908.00
2019-03-03T23:47:25.160Z,98891.00
2019-03-03T23:49:57.993Z,98867.00
2019-03-03T23:52:30.846Z,98859.00
2019-03-03T23:55:04.117Z,98885.00
2019-03-03T23:57:36.909Z,98895.00
